• Join FlightAware (Why Join?)
  • Login
  • US Flag 
04:16PM EDT


 

Airport Tracker/Info


-or-


 

Live Flight TrackerFlight Track Log ✈ SWA1728 ✈ 30-Apr-2013 ✈ KOMA - KDEN

Flight Track Log - Related Links

Times and Time Zones

All times are in EDT time to prevent confusion due to time zone crossing. See the SWA1728 flight status page for this flight to view local times or setup timezone preferences in your user account.

Time Position Orientation Groundspeed Altitude Reporting Facility
EDT Latitude Longitude Course Direction KTS MPH feet Rate Location/Type
03:53PM 41.3283 -95.9211 321° Northwest 169 194 2,500  Level Minneapolis Center
03:54PM 41.3689 -95.9667 320° Northwest 216 249 4,400 2,040 Climbing Minneapolis Center
03:55PM 41.3856 -95.9742 341° North 206 237 5,100 2,100 Climbing Minneapolis Center
03:56PM 41.4186 -96.0597 297° West 251 289 7,300 2,640 Climbing Minneapolis Center
03:57PM 41.4469 -96.1589 291° West 279 321 10,600 2,520 Climbing Minneapolis Center
03:58PM 41.4453 -96.2736 269° West 316 364 12,500 2,340 Climbing Minneapolis Center
03:59PM 41.4408 -96.4178 268° West 326 375 15,500 2,520 Climbing Minneapolis Center
04:00PM 41.4375 -96.5475 268° West 347 399 17,800 2,340 Climbing Minneapolis Center
04:01PM 41.4339 -96.6794 268° West 355 409 20,400 2,220 Climbing Minneapolis Center
04:02PM 41.4297 -96.8147 268° West 363 418 22,400 1,800 Climbing Minneapolis Center
04:03PM 41.4253 -96.9525 268° West 371 427 24,200 1,440 Climbing Minneapolis Center
04:04PM 41.4214 -97.0958 268° West 382 440 25,400 1,260 Climbing Minneapolis Center
04:05PM 41.4172 -97.2447 268° West 397 457 26,900 1,920 Climbing Minneapolis Center
04:06PM 41.4114 -97.4228 268° West 401 461 29,400 2,040 Climbing Minneapolis Center
04:07PM 41.4061 -97.5639 267° West 389 448 31,200 1,560 Climbing Minneapolis Center
04:08PM 41.4017 -97.7017 268° West 377 434 32,700 1,320 Climbing Minneapolis Center
04:09PM 41.3969 -97.8397 267° West 374 430 34,000 1,080 Climbing Minneapolis Center
04:10PM 41.3914 -97.9778 267° West 374 430 35,000 480 Climbing Minneapolis Center
04:11PM 41.3867 -98.0864 267° West 370 426 35,000  Level Minneapolis Center
04:12PM 41.3797 -98.2622 267° West 373 429 35,000  Level Minneapolis Center
04:13PM 41.3583 -98.4250 260° West 378 435 35,000  Level Minneapolis Center
04:14PM 41.3222 -98.5750 252° West 377 434 35,000  Level Minneapolis Center
04:15PM 41.2897 -98.7081 252° West 378 435 35,000  Level Minneapolis Center
04:16PM 41.2692 -98.8433 259° West 377 434 35,000  Level Minneapolis Center
04:18PM 41.2381 -99.0083 256° West 376 433 35,000  Level Denver Center
04:19PM 41.2133 -99.1386 256° West 372 428 35,000  Level Denver Center
04:20PM 41.1872 -99.2714 255° West 373 429 35,000  Level Denver Center
04:21PM 41.1619 -99.4058 256° West 376 433 35,000  Level Denver Center
04:22PM 41.1353 -99.5397 255° West 373 429 35,000  Level Denver Center
04:23PM 41.1067 -99.6883 256° West 373 429 35,000  Level Denver Center
04:24PM 41.0811 -99.8153 255° West 373 429 35,000  Level Denver Center
04:25PM 41.0517 -99.9636 255° West 373 429 35,000  Level Denver Center
04:26PM 41.0264 -100.0894 255° West 372 428 35,000  Level Denver Center
04:27PM 41.0011 -100.2156 255° West 371 427 35,000  Level Denver Center
04:28PM 40.9714 -100.3628 255° West 371 427 35,000  Level Denver Center
04:29PM 40.9458 -100.4900 255° West 374 430 35,000  Level Denver Center
04:30PM 40.9117 -100.6606 255° West 378 435 35,000  Level Denver Center
04:31PM 40.8811 -100.8075 255° West 382 440 35,000  Level Denver Center
04:32PM 40.8533 -100.9317 254° West 377 434 35,000  Level Denver Center
04:33PM 40.8225 -101.0794 255° West 376 433 35,000  Level Denver Center
04:34PM 40.7961 -101.2058 255° West 376 433 35,000  Level Denver Center
04:35PM 40.7647 -101.3553 255° West 380 437 35,000  Level Denver Center
04:36PM 40.7369 -101.4819 254° West 377 434 35,000 -240 Level Denver Center
04:37PM 40.7056 -101.6269 254° West 372 428 34,600 -540 Descending Denver Center
04:38PM 40.6786 -101.7536 254° West 374 430 34,000 -300 Descending Denver Center
04:39PM 40.6506 -101.8789 254° West 373 429 34,000  Level Denver Center
04:40PM 40.6183 -102.0272 254° West 378 435 34,000  Level Denver Center
04:41PM 40.5906 -102.1547 254° West 378 435 34,000  Level Denver Center
04:42PM 40.5567 -102.3033 253° West 380 437 34,000  Level Denver Center
04:43PM 40.5292 -102.4317 254° West 380 437 34,000  Level Denver Center
04:45PM 40.4953 -102.5800 253° West 381 438 34,000  Level Denver Center
04:46PM 40.4669 -102.7067 254° West 379 436 34,000  Level Denver Center
04:47PM 40.4369 -102.8347 253° West 381 438 34,000  Level Denver Center
04:48PM 40.4019 -102.9833 253° West 381 438 34,000 -240 Level Denver Center
04:49PM 40.3736 -103.1100 254° West 379 436 33,600 -1,080 Descending Denver Center
04:50PM 40.3400 -103.2533 253° West 371 427 31,900 -1,980 Descending Denver Center
04:51PM 40.3097 -103.3858 253° West 372 428 29,600 -2,280 Descending Denver Center
04:52PM 40.2794 -103.5111 252° West 376 433 27,300 -2,400 Descending Denver Center
04:53PM 40.2469 -103.6519 253° West 360 414 24,700 -2,280 Descending Denver Center
04:54PM 40.2136 -103.7994 254° West 349 402 22,300 -1,200 Descending Denver Center
04:55PM 40.1797 -103.8975 246° West 298 343 22,000 -900 Descending Denver Center
04:56PM 40.1383 -103.9856 238° Southwest 283 326 20,500 -1,680 Descending Denver Center
04:57PM 40.0942 -104.0806 239° Southwest 283 326 18,600 -1,740 Descending Denver Center
04:58PM 40.0519 -104.1750 240° Southwest 297 342 17,000 -1,020 Descending Denver Center
04:59PM 40.0092 -104.2656 238° Southwest 271 312 16,600 -1,020 Descending Denver Center
05:00PM 39.9708 -104.3469 238° Southwest 266 306 15,000 -1,680 Descending Denver Center
05:01PM 39.9500 -104.4000 243° Southwest 280 322 13,800 -1,800 Descending Denver TRACON
05:02PM 39.9000 -104.4833 232° Southwest 284 327 12,100 -1,620 Descending Denver TRACON
05:02PM 39.8711 -104.5006 205° Southwest 284 327 11,600 -780 Descending Denver Center
05:03PM 39.7972 -104.5008 180° South 266 306 11,000 -660 Descending Denver Center
05:04PM 39.7381 -104.5028 181° South 218 251 10,300 -1,260 Descending Denver Center
05:05PM 39.7136 -104.5617 242° Southwest 226 260 8,500 -1,560 Descending Denver Center
05:06PM 39.7233 -104.6386 279° West 217 250 7,200 -900 Descending Denver Center
05:07PM 39.7631 -104.6614 336° Northwest 158 182 6,700 -660 Descending Denver Center
05:08PM 39.8086 -104.6614 360° North 152 175 5,900 -660 Descending Denver Center
05:09PM 39.8450 -104.6608 North 149 171 5,400 -540 Descending Denver Center
05:11PM 39.8500 -104.6667 339° North  Level FlightAware Approximate
05:18PM 39.8617 -104.6732 339° North  Level Estimated
05:19PM 39.8617 -104.6732 339° North  Level Estimated
05:20PM 39.8617 -104.6732 339° North  Level Estimated